Time;durP1;ratioP1;P1;durP2;ratioP2;P2;SDS_P1;SDS_P2;PMS_P1;PMS_P2;Temp;Humidity;BMP_temperature;BMP_pressure;BME280_temperature;BME280_humidity;BME280_pressure;Samples;Min_cycle;Max_cycle;Signal;HPM_P1;HPM_P2
2023/03/17 00:00:32;;;;;;;8.90;6.17;;;;;;;17.45;53.97;99924.19;5097571;28;20641;-63
2023/03/17 00:02:58;;;;;;;8.80;5.93;;;;;;;17.46;53.91;99933.59;5110113;28;20185;-63
2023/03/17 00:05:26;;;;;;;10.70;6.00;;;;;;;17.45;53.86;99926.25;5096585;28;21105;-63
2023/03/17 00:07:52;;;;;;;10.20;6.30;;;;;;;17.47;53.81;99930.38;5088818;28;20497;-63
2023/03/17 00:10:22;;;;;;;10.30;6.93;;;;;;;17.46;53.80;99925.84;5108225;28;20440;-63
2023/03/17 00:12:52;;;;;;;10.30;6.47;;;;;;;17.44;54.07;99913.16;5110199;28;20528;-62
2023/03/17 00:15:19;;;;;;;8.63;5.60;;;;;;;17.43;53.95;99914.38;5109822;28;20443;-63
2023/03/17 00:17:46;;;;;;;8.50;5.33;;;;;;;17.42;53.94;99915.59;5110354;28;20420;-64
2023/03/17 00:20:38;;;;;;;9.53;5.83;;;;;;;17.45;54.09;99909.94;5108464;28;20419;-63
2023/03/17 00:23:03;;;;;;;10.93;5.87;;;;;;;17.43;54.11;99918.06;5088701;28;20288;-63
2023/03/17 00:25:31;;;;;;;9.63;6.17;;;;;;;17.42;53.89;99919.28;5106491;27;20418;-65
2023/03/17 00:27:57;;;;;;;8.70;6.17;;;;;;;17.41;54.04;99922.50;5108954;28;20200;-64
2023/03/17 00:30:23;;;;;;;10.90;5.83;;;;;;;17.38;54.12;99924.06;5109507;28;20467;-64
2023/03/17 00:32:50;;;;;;;11.10;5.63;;;;;;;17.39;53.86;99940.00;5109075;27;20170;-63
2023/03/17 00:35:36;;;;;;;7.50;5.23;;;;;;;17.41;54.04;99945.34;5108777;27;20180;-64
2023/03/17 00:38:01;;;;;;;9.60;6.07;;;;;;;17.41;53.77;99937.59;5087669;28;20439;-64
2023/03/17 00:40:29;;;;;;;7.60;5.30;;;;;;;17.45;53.50;99937.66;5089021;28;20409;-64
2023/03/17 00:42:54;;;;;;;9.73;5.37;;;;;;;17.48;53.70;99932.00;5104249;28;20412;-64
2023/03/17 00:45:20;;;;;;;8.13;5.57;;;;;;;17.47;53.93;99941.78;5109665;28;20434;-64
2023/03/17 00:47:46;;;;;;;8.83;5.50;;;;;;;17.46;53.59;99942.97;5109256;28;20197;-64
2023/03/17 00:50:14;;;;;;;8.90;5.83;;;;;;;17.50;53.85;99937.34;5108315;28;20431;-65
2023/03/17 00:52:41;;;;;;;6.93;5.30;;;;;;;17.52;53.84;99938.59;5109562;28;20439;-65
2023/03/17 00:55:07;;;;;;;11.40;5.70;;;;;;;17.50;53.88;99943.84;5109839;28;20459;-63
2023/03/17 00:57:34;;;;;;;9.00;5.40;;;;;;;17.45;54.15;99932.75;5109824;28;20490;-64
2023/03/17 01:00:00;;;;;;;8.47;5.33;;;;;;;17.44;53.92;99931.13;5109481;28;20427;-64
2023/03/17 01:02:26;;;;;;;7.77;4.97;;;;;;;17.40;54.02;99930.22;5108730;28;20929;-64
2023/03/17 01:04:52;;;;;;;7.60;5.23;;;;;;;17.41;54.18;99923.31;5101983;28;20220;-64
2023/03/17 01:07:18;;;;;;;8.80;5.20;;;;;;;17.42;53.98;99927.84;5089287;28;20183;-64
2023/03/17 01:09:44;;;;;;;8.80;5.30;;;;;;;17.41;53.73;99931.88;5109512;28;20909;-65
2023/03/17 01:12:11;;;;;;;8.27;5.87;;;;;;;17.41;54.07;99931.88;5091647;28;20193;-64
2023/03/17 01:14:36;;;;;;;7.93;5.40;;;;;;;17.42;54.05;99925.00;5107772;28;20467;-64
2023/03/17 01:17:02;;;;;;;7.97;5.30;;;;;;;17.41;53.94;99919.66;5109803;28;20433;-64
2023/03/17 01:19:27;;;;;;;8.67;5.30;;;;;;;17.41;53.89;99922.50;5109262;28;20656;-64
2023/03/17 01:21:53;;;;;;;9.33;5.33;;;;;;;17.38;53.90;99921.22;5109409;28;20193;-64
2023/03/17 01:24:18;;;;;;;6.93;5.00;;;;;;;17.41;53.87;99923.31;5109625;28;20170;-64
2023/03/17 01:26:44;;;;;;;6.47;4.67;;;;;;;17.39;54.17;99920.03;5107821;28;20205;-64
2023/03/17 01:29:10;;;;;;;7.67;4.67;;;;;;;17.38;53.77;99908.97;5109368;28;20162;-64
2023/03/17 01:31:36;;;;;;;7.80;5.30;;;;;;;17.41;53.96;99903.34;5109157;28;20468;-65
2023/03/17 01:34:03;;;;;;;9.77;5.40;;;;;;;17.38;54.24;99892.69;5110779;28;20229;-64
2023/03/17 01:36:28;;;;;;;8.20;5.03;;;;;;;17.38;54.33;99903.25;5112777;28;20525;-63
2023/03/17 01:38:54;;;;;;;7.77;5.17;;;;;;;17.39;53.91;99894.34;5113596;28;20501;-65
2023/03/17 01:41:19;;;;;;;7.57;5.20;;;;;;;17.40;54.10;99906.59;5113316;28;20157;-64
2023/03/17 01:43:45;;;;;;;8.57;5.57;;;;;;;17.36;54.11;99903.63;5112915;27;20291;-64
2023/03/17 01:46:29;;;;;;;6.37;4.63;;;;;;;17.35;54.05;99904.84;5113769;27;20181;-64
2023/03/17 01:49:21;;;;;;;7.67;5.07;;;;;;;17.34;54.16;99910.94;5113097;28;20731;-64
2023/03/17 01:51:56;;;;;;;8.23;5.47;;;;;;;17.34;53.95;99910.94;5113747;27;20411;-64
2023/03/17 01:54:42;;;;;;;8.03;5.53;;;;;;;17.31;54.05;99909.66;5113256;28;20492;-64
2023/03/17 01:57:14;;;;;;;8.90;4.70;;;;;;;17.36;53.89;99912.19;5112675;28;20486;-64
2023/03/17 01:59:44;;;;;;;7.20;4.90;;;;;;;17.36;54.14;99906.50;5111920;28;20906;-64
2023/03/17 02:02:10;;;;;;;8.90;5.23;;;;;;;17.34;53.94;99905.22;5112588;27;20446;-63
2023/03/17 02:04:36;;;;;;;6.20;4.77;;;;;;;17.31;54.20;99891.75;5106468;28;20842;-64
2023/03/17 02:07:01;;;;;;;7.50;4.90;;;;;;;17.33;54.18;99889.31;5090963;28;20417;-64
2023/03/17 02:09:27;;;;;;;6.17;4.30;;;;;;;17.35;54.16;99898.34;5110568;28;20228;-64
2023/03/17 02:11:52;;;;;;;7.47;5.13;;;;;;;17.36;54.29;99900.78;5112505;28;20203;-64
2023/03/17 02:14:19;;;;;;;10.37;5.67;;;;;;;17.40;53.98;99890.28;5111930;28;20272;-64
2023/03/17 02:16:44;;;;;;;8.63;5.27;;;;;;;17.43;53.77;99878.13;5112578;28;20262;-65
2023/03/17 02:19:10;;;;;;;11.83;4.67;;;;;;;17.45;54.04;99875.69;5112863;28;20412;-64
2023/03/17 02:21:40;;;;;;;8.17;4.73;;;;;;;17.40;54.00;99878.06;5111591;28;20190;-63
2023/03/17 02:24:20;;;;;;;6.57;4.70;;;;;;;17.37;54.24;99873.91;5112584;28;20531;-64
2023/03/17 02:26:46;;;;;;;7.60;4.70;;;;;;;17.34;53.73;99877.53;5110386;28;20443;-64
2023/03/17 02:29:12;;;;;;;9.57;5.43;;;;;;;17.37;53.98;99873.09;5112397;28;20404;-64
2023/03/17 02:31:37;;;;;;;8.07;4.93;;;;;;;17.34;54.23;99871.81;5111523;28;20446;-63
2023/03/17 02:34:02;;;;;;;6.43;4.50;;;;;;;17.36;54.03;99877.94;5112528;27;20566;-65
2023/03/17 02:36:28;;;;;;;6.40;4.90;;;;;;;17.36;53.92;99866.53;5113901;27;20637;-64
2023/03/17 02:38:57;;;;;;;6.13;3.60;;;;;;;17.35;54.28;99864.09;5111787;28;20174;-64
2023/03/17 02:41:22;;;;;;;6.77;4.97;;;;;;;17.35;54.00;99853.50;5112387;28;20646;-64
2023/03/17 02:43:47;;;;;;;7.50;4.90;;;;;;;17.38;54.10;99854.75;5101696;28;20436;-64
2023/03/17 02:46:13;;;;;;;6.63;4.50;;;;;;;17.35;54.24;99853.50;5109693;28;20185;-64
2023/03/17 02:48:38;;;;;;;6.30;4.43;;;;;;;17.35;53.92;99844.13;5110849;28;20578;-64
2023/03/17 02:51:04;;;;;;;6.07;4.37;;;;;;;17.34;54.12;99849.00;5092195;28;20189;-64
2023/03/17 02:53:30;;;;;;;6.90;4.47;;;;;;;17.34;54.06;99848.16;5111411;28;20186;-64
2023/03/17 02:55:56;;;;;;;6.93;5.20;;;;;;;17.33;54.04;99844.50;5109989;28;20427;-64
2023/03/17 02:58:22;;;;;;;7.17;4.93;;;;;;;17.31;54.19;99846.09;5109906;28;20230;-63
2023/03/17 03:00:48;;;;;;;7.10;4.90;;;;;;;17.33;53.94;99860.78;5111183;28;20893;-64
2023/03/17 03:03:14;;;;;;;8.20;4.83;;;;;;;17.33;53.83;99847.34;5111614;28;20159;-64
2023/03/17 03:05:40;;;;;;;6.70;4.40;;;;;;;17.31;54.07;99840.38;5110947;28;20458;-64
2023/03/17 03:08:05;;;;;;;6.07;4.23;;;;;;;17.28;54.02;99839.13;5111463;28;20166;-65
2023/03/17 03:10:31;;;;;;;7.30;4.43;;;;;;;17.26;54.28;99838.66;5111531;28;20166;-65
2023/03/17 03:12:56;;;;;;;7.80;4.80;;;;;;;17.31;54.05;99835.47;5111189;28;20225;-64
2023/03/17 03:15:22;;;;;;;7.03;4.43;;;;;;;17.34;53.92;99828.19;5110906;28;20209;-64
2023/03/17 03:17:47;;;;;;;6.50;4.70;;;;;;;17.27;54.31;99836.66;5111446;28;20546;-64
2023/03/17 03:20:13;;;;;;;6.83;4.20;;;;;;;17.27;54.05;99840.34;5111408;28;20656;-64
2023/03/17 03:22:39;;;;;;;6.73;4.30;;;;;;;17.27;54.27;99845.22;5111568;28;20174;-64
2023/03/17 03:25:06;;;;;;;6.07;3.90;;;;;;;17.27;54.13;99843.19;5109050;28;20205;-64
2023/03/17 03:27:31;;;;;;;5.90;3.90;;;;;;;17.34;53.82;99842.44;5111102;28;20415;-64
2023/03/17 03:29:57;;;;;;;9.73;4.90;;;;;;;17.31;54.11;99843.25;5110452;28;21390;-64
2023/03/17 03:32:22;;;;;;;5.57;3.90;;;;;;;17.29;54.18;99849.31;5111189;28;20226;-64
2023/03/17 03:34:48;;;;;;;7.40;4.63;;;;;;;17.29;54.21;99843.63;5111093;28;20239;-64
2023/03/17 03:37:13;;;;;;;6.50;4.10;;;;;;;17.24;54.29;99849.66;5110867;28;20178;-64
2023/03/17 03:39:39;;;;;;;5.77;4.60;;;;;;;17.32;54.49;99842.88;5111884;27;20173;-64
2023/03/17 03:42:05;;;;;;;5.33;4.00;;;;;;;17.36;54.06;99845.75;5111888;27;20839;-64
2023/03/17 03:44:31;;;;;;;5.23;4.07;;;;;;;17.34;53.98;99851.84;5110690;27;20249;-65
2023/03/17 03:46:56;;;;;;;7.00;4.13;;;;;;;17.32;54.18;99859.97;5111120;28;20419;-64
2023/03/17 03:49:22;;;;;;;6.87;4.70;;;;;;;17.31;53.89;99861.16;5111004;28;20169;-64
2023/03/17 03:51:47;;;;;;;4.70;3.67;;;;;;;17.30;54.39;99850.97;5110117;28;20174;-64
2023/03/17 03:54:13;;;;;;;6.77;4.10;;;;;;;17.31;53.96;99860.34;5110554;28;20189;-64
2023/03/17 03:56:38;;;;;;;6.37;4.13;;;;;;;17.30;53.90;99859.53;5110511;28;20181;-64
2023/03/17 03:59:03;;;;;;;6.20;4.17;;;;;;;17.32;54.24;99859.16;5109859;28;20173;-64
2023/03/17 04:01:29;;;;;;;6.40;4.50;;;;;;;17.29;54.22;99859.91;5110473;28;20205;-64
2023/03/17 04:03:54;;;;;;;6.67;4.40;;;;;;;17.31;54.56;99857.50;5109379;28;20220;-63
2023/03/17 04:06:20;;;;;;;5.60;4.30;;;;;;;17.31;54.18;99858.31;5110428;28;20731;-64
2023/03/17 04:08:45;;;;;;;5.53;3.83;;;;;;;17.30;53.95;99856.66;5110400;28;20174;-64
2023/03/17 04:11:11;;;;;;;5.20;3.60;;;;;;;17.28;54.21;99870.50;5109634;28;20236;-64
2023/03/17 04:13:37;;;;;;;5.67;4.10;;;;;;;17.29;53.87;99877.84;5110058;28;20618;-64
2023/03/17 04:16:02;;;;;;;6.13;4.50;;;;;;;17.29;54.14;99866.44;5109844;28;20200;-65
2023/03/17 04:18:29;;;;;;;6.90;3.90;;;;;;;17.28;54.21;99858.25;5110412;27;21063;-64
2023/03/17 04:20:55;;;;;;;5.37;3.87;;;;;;;17.31;54.45;99855.47;5110130;28;20249;-64
2023/03/17 04:23:20;;;;;;;5.50;3.80;;;;;;;17.28;54.04;99855.41;5110061;28;20407;-64
2023/03/17 04:25:46;;;;;;;5.13;3.63;;;;;;;17.25;54.18;99847.63;5108841;28;20653;-64
2023/03/17 04:28:11;;;;;;;6.87;4.00;;;;;;;17.24;54.34;99846.78;5111297;27;20178;-64
2023/03/17 04:30:37;;;;;;;9.03;4.50;;;;;;;17.24;54.06;99843.94;5109222;28;20239;-64
2023/03/17 04:33:02;;;;;;;5.10;3.70;;;;;;;17.27;54.16;99843.19;5107832;28;20170;-64
2023/03/17 04:35:28;;;;;;;5.90;4.10;;;;;;;17.26;54.08;99841.53;5116074;27;20185;-64
2023/03/17 04:37:53;;;;;;;5.30;4.20;;;;;;;17.22;54.00;99854.94;5113702;27;20181;-64
2023/03/17 04:40:19;;;;;;;7.20;4.43;;;;;;;17.23;54.20;99852.88;5109266;28;20165;-64
2023/03/17 04:42:45;;;;;;;5.33;3.70;;;;;;;17.25;54.18;99859.84;5107479;28;20177;-64
2023/03/17 04:45:11;;;;;;;4.90;3.40;;;;;;;17.27;54.18;99856.63;5107745;28;20235;-64
2023/03/17 04:47:36;;;;;;;5.80;4.13;;;;;;;17.30;54.18;99865.22;5108837;28;20185;-63
2023/03/17 04:50:02;;;;;;;5.20;3.77;;;;;;;17.26;53.89;99867.19;5109335;28;20404;-63
2023/03/17 04:52:28;;;;;;;5.87;4.10;;;;;;;17.26;53.97;99872.91;5108501;28;20182;-63
2023/03/17 04:54:53;;;;;;;6.47;4.13;;;;;;;17.27;54.01;99868.88;5108817;28;20197;-63
2023/03/17 04:57:18;;;;;;;6.17;4.10;;;;;;;17.25;54.23;99870.44;5108504;28;20177;-64
2023/03/17 04:59:44;;;;;;;7.00;4.30;;;;;;;17.25;53.95;99876.97;5109141;28;20181;-63
2023/03/17 05:02:09;;;;;;;5.97;3.80;;;;;;;17.34;53.91;99863.25;5107502;28;20256;-65
2023/03/17 05:04:35;;;;;;;5.60;3.90;;;;;;;17.34;53.91;99860.41;5109181;28;20197;-65
2023/03/17 05:07:01;;;;;;;7.20;4.57;;;;;;;17.29;54.09;99854.19;5109064;28;20182;-64
2023/03/17 05:09:27;;;;;;;7.10;3.90;;;;;;;17.27;54.33;99862.31;5111946;28;20260;-63
2023/03/17 05:11:53;;;;;;;5.30;3.60;;;;;;;17.26;54.34;99870.03;5112498;28;20411;-64
2023/03/17 05:14:18;;;;;;;4.63;4.10;;;;;;;17.27;54.12;99877.44;5112869;28;20985;-64
2023/03/17 05:16:48;;;;;;;6.60;4.17;;;;;;;17.27;54.02;99880.28;5114024;28;20162;-65
2023/03/17 05:19:14;;;;;;;6.00;3.90;;;;;;;17.27;53.90;99880.28;5111806;28;20549;-65
2023/03/17 05:21:40;;;;;;;5.53;4.13;;;;;;;17.27;54.01;99888.84;5113746;28;20426;-64
2023/03/17 05:24:05;;;;;;;5.50;3.80;;;;;;;17.30;54.01;99890.91;5113020;27;21028;-65
2023/03/17 05:26:31;;;;;;;5.93;4.27;;;;;;;17.28;53.98;99889.63;5113322;28;20173;-64
2023/03/17 05:28:56;;;;;;;4.50;3.40;;;;;;;17.24;54.37;99886.75;5112125;28;20174;-64
2023/03/17 05:31:22;;;;;;;5.00;3.57;;;;;;;17.26;53.86;99895.72;5112581;28;20185;-65
2023/03/17 05:33:48;;;;;;;6.20;3.87;;;;;;;17.27;53.99;99907.97;5113289;28;20197;-64
2023/03/17 05:36:14;;;;;;;5.27;4.03;;;;;;;17.25;54.34;99901.84;5112750;28;20629;-64
2023/03/17 05:38:39;;;;;;;4.80;3.97;;;;;;;17.25;54.20;99894.09;5113313;27;20882;-64
2023/03/17 05:41:04;;;;;;;6.17;4.30;;;;;;;17.26;54.30;99887.16;5113443;28;20404;-64
2023/03/17 05:43:30;;;;;;;4.10;2.80;;;;;;;17.23;53.97;99885.09;5112529;28;20313;-64
2023/03/17 05:45:55;;;;;;;5.57;4.00;;;;;;;17.19;54.17;99878.50;5113338;27;20170;-64
2023/03/17 05:48:21;;;;;;;6.07;3.73;;;;;;;17.20;54.21;99885.84;5111933;28;20211;-64
2023/03/17 05:50:47;;;;;;;4.67;3.43;;;;;;;17.21;54.28;99887.50;5113092;28;20199;-64
2023/03/17 05:53:12;;;;;;;4.70;3.60;;;;;;;17.22;54.23;99891.19;5112966;28;20684;-64
2023/03/17 05:55:38;;;;;;;6.10;3.80;;;;;;;17.19;54.03;99883.38;5111911;28;20189;-64
2023/03/17 05:58:05;;;;;;;5.43;3.53;;;;;;;17.18;54.02;99891.13;5112469;27;20235;-64
2023/03/17 06:00:30;;;;;;;5.03;3.70;;;;;;;17.20;54.24;99888.69;5112086;28;20192;-64
2023/03/17 06:02:56;;;;;;;4.87;3.37;;;;;;;17.24;53.90;99885.91;5112735;28;20431;-64
2023/03/17 06:05:21;;;;;;;5.77;3.50;;;;;;;17.25;53.94;99879.81;5100704;28;20410;-65
2023/03/17 06:07:47;;;;;;;5.77;3.60;;;;;;;17.25;54.14;99887.56;5105374;28;20653;-64
2023/03/17 06:10:12;;;;;;;4.80;3.13;;;;;;;17.25;54.01;99890.44;5110748;28;20177;-66
2023/03/17 06:12:38;;;;;;;5.90;3.60;;;;;;;17.24;53.84;99891.59;5110939;28;20229;-63
2023/03/17 06:15:04;;;;;;;4.93;3.33;;;;;;;17.22;54.09;99880.59;5112159;28;20208;-65
2023/03/17 06:17:29;;;;;;;5.27;3.40;;;;;;;17.22;53.72;99894.03;5111835;28;20178;-63
2023/03/17 06:19:55;;;;;;;5.77;3.80;;;;;;;17.20;54.18;99885.84;5110689;28;20443;-65
2023/03/17 06:22:21;;;;;;;4.77;3.30;;;;;;;17.31;53.79;99894.59;5113124;27;20166;-64
2023/03/17 06:24:51;;;;;;;5.30;3.37;;;;;;;17.33;53.95;99890.16;5106909;28;20174;-64
2023/03/17 06:27:16;;;;;;;5.53;4.00;;;;;;;17.28;54.17;99895.34;5108952;28;20182;-63
2023/03/17 06:29:42;;;;;;;5.17;3.80;;;;;;;17.26;54.23;99901.44;5109026;27;20433;-64
2023/03/17 06:32:08;;;;;;;5.17;3.80;;;;;;;17.27;54.24;99903.09;5109859;28;20688;-66
2023/03/17 06:34:33;;;;;;;6.00;3.63;;;;;;;17.29;53.58;99911.25;5102175;28;20194;-68
2023/03/17 06:36:59;;;;;;;4.60;3.20;;;;;;;17.27;54.00;99916.53;5102292;28;20193;-65
2023/03/17 06:39:25;;;;;;;4.73;3.30;;;;;;;17.26;53.69;99901.44;5109770;28;20193;-62
2023/03/17 06:41:50;;;;;;;5.17;3.60;;;;;;;17.26;54.20;99894.91;5103705;27;20193;-63
2023/03/17 06:44:16;;;;;;;5.47;3.67;;;;;;;17.26;53.90;99892.06;5101084;28;20158;-63
2023/03/17 06:46:41;;;;;;;6.10;3.93;;;;;;;17.26;54.18;99894.91;5107754;28;20193;-62
2023/03/17 06:49:08;;;;;;;4.77;3.57;;;;;;;17.23;54.05;99899.34;5101643;28;20166;-62
2023/03/17 06:51:36;;;;;;;4.93;3.50;;;;;;;17.26;54.07;99898.56;5108787;28;20186;-63
2023/03/17 06:54:01;;;;;;;5.30;3.80;;;;;;;17.27;53.93;99899.41;5111916;28;20451;-64
2023/03/17 06:56:26;;;;;;;4.47;3.27;;;;;;;17.24;54.09;99892.44;5111463;28;20442;-63
2023/03/17 06:58:52;;;;;;;4.40;3.30;;;;;;;17.26;54.43;99889.22;5113012;28;20177;-64
2023/03/17 07:01:18;;;;;;;5.37;3.70;;;;;;;17.25;53.65;99888.38;5113668;28;20159;-63
2023/03/17 07:03:44;;;;;;;4.73;3.57;;;;;;;17.22;54.08;99882.63;5112666;28;20633;-64
2023/03/17 07:06:09;;;;;;;6.30;4.10;;;;;;;17.22;53.73;99889.16;5103931;28;20185;-64
2023/03/17 07:08:35;;;;;;;4.93;3.50;;;;;;;17.19;54.11;99898.47;5104150;28;20425;-64
2023/03/17 07:11:02;;;;;;;4.70;3.27;;;;;;;17.21;53.93;99893.19;5101205;28;20173;-63
2023/03/17 07:13:34;;;;;;;4.60;3.43;;;;;;;17.25;53.87;99910.41;5102817;28;20229;-64
2023/03/17 07:16:01;;;;;;;5.10;3.07;;;;;;;17.22;54.06;99905.44;5078456;28;20536;-62
2023/03/17 07:18:28;;;;;;;5.60;3.90;;;;;;;17.20;54.23;99902.97;5100383;28;21489;-64
2023/03/17 07:20:53;;;;;;;4.00;3.17;;;;;;;17.23;53.74;99912.78;5111611;28;20955;-65
2023/03/17 07:23:20;;;;;;;4.80;3.37;;;;;;;17.27;53.73;99907.97;5111471;28;20400;-65
2023/03/17 07:25:46;;;;;;;4.40;3.20;;;;;;;17.33;53.36;99906.44;5109204;28;20188;-64
2023/03/17 07:28:12;;;;;;;11.27;7.10;;;;;;;17.01;53.88;99905.06;5104214;28;20435;-63
2023/03/17 07:30:37;;;;;;;15.60;9.13;;;;;;;16.76;47.44;99898.91;5103511;28;20178;-63
2023/03/17 07:33:03;;;;;;;16.90;10.97;;;;;;;16.96;52.09;99897.63;5107837;28;20728;-65
2023/03/17 07:35:29;;;;;;;22.03;12.70;;;;;;;17.10;49.50;99889.34;5088193;27;20220;-64
2023/03/17 07:37:55;;;;;;;19.53;11.33;;;;;;;17.31;47.58;99892.53;5123596;27;20218;-64
2023/03/17 07:40:20;;;;;;;17.87;10.83;;;;;;;17.53;46.69;99890.91;5107613;28;20890;-65
2023/03/17 07:42:46;;;;;;;28.00;12.50;;;;;;;17.76;46.59;99889.63;5108387;28;20249;-64
2023/03/17 07:45:12;;;;;;;23.83;10.20;;;;;;;18.00;46.54;99882.59;5108589;27;20170;-63
2023/03/17 07:47:38;;;;;;;22.00;10.33;;;;;;;18.34;45.66;99873.72;5091049;28;20257;-62
2023/03/17 07:50:04;;;;;;;29.90;11.20;;;;;;;18.69;46.38;99879.84;5109640;28;20170;-63
2023/03/17 07:52:30;;;;;;;22.60;10.60;;;;;;;18.83;46.28;99874.25;5096274;28;20989;-64
2023/03/17 07:54:57;;;;;;;26.00;10.70;;;;;;;18.97;46.05;99877.25;5106550;28;20491;-64
2023/03/17 07:57:22;;;;;;;21.07;10.67;;;;;;;19.02;46.61;99882.59;5109281;28;20185;-63
2023/03/17 07:59:49;;;;;;;20.63;11.00;;;;;;;18.96;46.67;99883.38;5106862;28;20466;-64
2023/03/17 08:02:15;;;;;;;32.90;10.20;;;;;;;19.00;46.70;99887.91;5109711;28;20180;-62
2023/03/17 08:04:41;;;;;;;25.30;8.83;;;;;;;19.02;46.59;99888.31;5088796;28;20534;-63
2023/03/17 08:07:06;;;;;;;22.20;9.50;;;;;;;18.80;46.91;99879.91;5108540;28;20423;-63
2023/03/17 08:09:32;;;;;;;20.20;9.70;;;;;;;18.59;46.88;99885.41;5085076;28;20194;-62
2023/03/17 08:11:57;;;;;;;18.87;10.23;;;;;;;18.40;47.12;99888.47;5087624;28;20180;-64
2023/03/17 08:14:23;;;;;;;25.90;10.67;;;;;;;18.19;48.00;99894.72;5106351;28;20217;-63
2023/03/17 08:16:48;;;;;;;21.87;10.00;;;;;;;18.56;47.62;99886.22;5069925;28;20232;-64
2023/03/17 08:19:15;;;;;;;28.77;10.50;;;;;;;18.63;48.16;99887.13;5108948;28;20185;-63
2023/03/17 08:21:40;;;;;;;31.70;9.70;;;;;;;18.60;48.43;99899.34;5107586;28;20241;-64
2023/03/17 08:24:06;;;;;;;18.03;9.40;;;;;;;18.56;48.76;99891.94;5107193;28;20467;-63
2023/03/17 08:26:32;;;;;;;18.90;9.73;;;;;;;18.17;49.51;99879.97;5106853;28;20185;-63
2023/03/17 08:28:57;;;;;;;22.10;10.10;;;;;;;18.11;49.96;99890.09;5108012;27;20588;-63
2023/03/17 08:31:23;;;;;;;21.97;10.20;;;;;;;18.11;51.16;99883.59;5105075;28;20185;-62
2023/03/17 08:33:50;;;;;;;17.10;9.90;;;;;;;18.15;50.90;99882.41;5107448;28;20190;-62
2023/03/17 08:36:19;;;;;;;19.30;9.13;;;;;;;18.03;49.83;99878.97;5092203;28;20425;-66
2023/03/17 08:38:45;;;;;;;23.30;10.03;;;;;;;17.93;49.73;99873.94;5087988;28;20444;-64
2023/03/17 08:41:12;;;;;;;18.30;8.93;;;;;;;17.93;49.71;99874.78;5100381;28;20415;-64
2023/03/17 08:43:38;;;;;;;18.50;9.30;;;;;;;17.95;49.83;99882.94;5100214;28;20254;-65
2023/03/17 08:46:06;;;;;;;19.17;8.80;;;;;;;17.98;49.77;99865.88;5107571;28;20427;-63
2023/03/17 08:48:32;;;;;;;25.73;8.97;;;;;;;17.92;50.42;99876.00;5108532;28;20188;-63
2023/03/17 08:50:57;;;;;;;16.17;8.20;;;;;;;17.90;50.21;99864.13;5108154;28;20534;-64
2023/03/17 08:53:23;;;;;;;16.27;8.00;;;;;;;17.93;50.09;99871.94;5107341;28;20188;-63
2023/03/17 08:55:48;;;;;;;20.83;8.10;;;;;;;17.81;50.70;99859.91;5107188;28;20178;-63
2023/03/17 08:58:14;;;;;;;16.43;8.30;;;;;;;17.78;50.68;99863.53;5106281;28;20173;-65
2023/03/17 09:00:39;;;;;;;14.97;7.90;;;;;;;17.73;50.94;99866.72;5105954;28;20181;-64
2023/03/17 09:03:05;;;;;;;18.87;8.00;;;;;;;17.74;51.20;99863.50;5107997;28;20182;-63
2023/03/17 09:05:31;;;;;;;19.07;8.50;;;;;;;17.71;51.22;99854.88;5105857;28;20189;-63
2023/03/17 09:07:56;;;;;;;20.10;8.53;;;;;;;17.58;50.55;99857.16;5105162;28;20204;-62
2023/03/17 09:10:22;;;;;;;22.10;7.53;;;;;;;17.56;50.76;99862.41;5100588;28;20717;-62
2023/03/17 09:12:52;;;;;;;17.40;7.00;;;;;;;17.59;49.35;99853.09;5108539;28;20628;-62
2023/03/17 09:15:23;;;;;;;11.50;6.40;;;;;;;17.59;49.15;99850.22;5108625;28;20470;-60
2023/03/17 09:17:48;;;;;;;14.80;7.17;;;;;;;17.60;49.42;99853.91;5067370;28;20447;-61
2023/03/17 09:20:14;;;;;;;15.53;7.60;;;;;;;17.63;49.39;99856.81;5088419;28;20431;-60
2023/03/17 09:22:40;;;;;;;18.37;7.63;;;;;;;17.63;49.87;99861.69;5089581;28;20186;-62
2023/03/17 09:25:06;;;;;;;19.07;6.20;;;;;;;17.67;49.51;99865.44;5109124;28;20150;-60
2023/03/17 09:27:31;;;;;;;16.30;5.77;;;;;;;17.67;49.78;99854.84;5109824;28;20522;-62
2023/03/17 09:29:57;;;;;;;16.17;6.07;;;;;;;17.71;49.82;99855.69;5127555;28;20419;-62
2023/03/17 09:32:22;;;;;;;10.80;6.50;;;;;;;17.70;49.76;99854.06;5130464;28;20173;-64
2023/03/17 09:34:48;;;;;;;16.90;6.67;;;;;;;17.67;50.01;99849.13;5095571;28;20209;-61
2023/03/17 09:37:13;;;;;;;10.70;5.13;;;;;;;17.77;49.86;99842.75;5073528;28;20313;-61
2023/03/17 09:39:39;;;;;;;15.07;6.10;;;;;;;17.79;49.81;99843.16;5107747;28;20178;-62
2023/03/17 09:42:27;;;;;;;19.20;6.23;;;;;;;17.76;49.87;99851.69;5105021;28;20177;-61
2023/03/17 09:45:19;;;;;;;12.67;6.63;;;;;;;17.70;50.41;99842.63;5108159;28;20736;-62
2023/03/17 09:47:57;;;;;;;13.40;5.50;;;;;;;17.69;50.93;99838.13;5094401;28;20451;-61
2023/03/17 09:50:45;;;;;;;9.30;5.47;;;;;;;17.69;51.03;99846.69;5109420;28;20484;-61
2023/03/17 09:53:34;;;;;;;10.87;5.50;;;;;;;17.68;50.68;99844.22;5110397;28;20420;-61
2023/03/17 09:56:27;;;;;;;13.13;5.97;;;;;;;17.62;51.07;99834.34;5090424;28;20467;-61
2023/03/17 09:58:58;;;;;;;11.43;5.87;;;;;;;17.62;51.36;99840.91;5089109;28;20436;-60
2023/03/17 10:01:23;;;;;;;13.07;5.60;;;;;;;17.62;51.48;99840.06;5092228;28;20413;-61
2023/03/17 10:03:49;;;;;;;18.97;5.50;;;;;;;17.63;51.68;99833.97;5103162;28;20979;-62
2023/03/17 10:06:33;;;;;;;11.07;5.40;;;;;;;17.63;51.43;99831.13;5104600;28;20230;-61
2023/03/17 10:09:09;;;;;;;12.20;5.33;;;;;;;17.61;51.54;99830.66;5112656;28;20168;-61
2023/03/17 10:11:42;;;;;;;11.53;5.80;;;;;;;17.60;51.44;99831.88;5115321;27;20472;-63
2023/03/17 10:14:31;;;;;;;8.93;4.70;;;;;;;17.59;51.92;99833.09;5112684;28;20463;-61
2023/03/17 10:17:12;;;;;;;9.47;5.07;;;;;;;17.57;51.77;99829.81;5110635;28;20530;-61
2023/03/17 10:19:41;;;;;;;15.30;5.27;;;;;;;17.54;52.02;99826.88;5078013;28;20507;-62
2023/03/17 10:22:15;;;;;;;11.30;5.03;;;;;;;17.56;52.20;99825.28;5081008;28;20435;-61
2023/03/17 10:24:44;;;;;;;13.67;5.73;;;;;;;17.52;52.24;99817.91;5094600;28;20787;-61
2023/03/17 10:27:09;;;;;;;10.17;5.50;;;;;;;17.49;52.49;99813.78;5080339;28;20446;-61
2023/03/17 10:29:35;;;;;;;7.67;4.80;;;;;;;17.49;52.42;99805.22;5111574;28;20436;-61
2023/03/17 10:32:01;;;;;;;11.07;5.60;;;;;;;17.52;52.42;99810.19;5112454;28;20521;-62
2023/03/17 10:34:29;;;;;;;10.77;4.97;;;;;;;17.54;52.50;99812.63;5112054;28;20957;-61
2023/03/17 10:37:14;;;;;;;10.67;5.87;;;;;;;17.57;52.57;99807.00;5111650;28;20213;-61
2023/03/17 10:39:52;;;;;;;9.43;4.70;;;;;;;17.56;52.44;99807.38;5092560;28;20990;-62
2023/03/17 10:42:25;;;;;;;13.10;5.90;;;;;;;17.51;52.72;99810.56;5091794;28;20519;-62
2023/03/17 10:45:16;;;;;;;8.00;4.30;;;;;;;17.50;52.82;99806.06;5091672;28;20408;-62
2023/03/17 10:47:46;;;;;;;11.27;4.67;;;;;;;17.55;52.75;99802.88;5095108;28;20518;-62
2023/03/17 10:50:20;;;;;;;11.70;4.30;;;;;;;17.54;52.83;99802.03;5112559;28;20414;-63
2023/03/17 10:52:46;;;;;;;8.60;4.73;;;;;;;17.57;52.69;99815.56;5107308;28;20630;-61
2023/03/17 10:55:14;;;;;;;10.60;5.70;;;;;;;17.60;52.52;99820.47;5100946;28;20974;-61
2023/03/17 10:57:39;;;;;;;13.13;4.70;;;;;;;17.61;52.55;99812.75;5110866;28;20178;-60
2023/03/17 11:00:20;;;;;;;11.40;4.60;;;;;;;17.60;52.15;99803.34;5093679;28;20810;-62
2023/03/17 11:02:52;;;;;;;9.63;4.47;;;;;;;17.64;52.31;99795.66;5110416;28;20224;-61
2023/03/17 11:05:22;;;;;;;9.70;4.27;;;;;;;17.56;52.31;99791.03;5093104;28;21040;-62
2023/03/17 11:07:48;;;;;;;10.67;5.30;;;;;;;17.56;52.35;99784.53;5109558;28;20415;-66
2023/03/17 11:10:22;;;;;;;10.33;4.40;;;;;;;17.65;52.14;99780.16;5091743;28;20443;-62
2023/03/17 11:12:53;;;;;;;9.63;4.33;;;;;;;17.65;52.48;99782.22;5110392;28;20233;-60
2023/03/17 11:15:19;;;;;;;6.90;4.00;;;;;;;17.72;52.30;99770.88;5109679;28;20474;-61
2023/03/17 11:17:56;;;;;;;10.10;4.70;;;;;;;17.73;52.37;99781.91;5092715;28;20424;-61
2023/03/17 11:21:05;;;;;;;13.33;4.73;;;;;;;17.66;52.53;99776.09;5110558;28;20248;-61
2023/03/17 11:23:52;;;;;;;13.70;5.30;;;;;;;17.62;52.80;99780.97;4996924;28;20418;-61
2023/03/17 11:26:46;;;;;;;8.70;4.43;;;;;;;17.58;52.73;99774.38;5009608;28;20407;-61
2023/03/17 11:29:54;;;;;;;12.07;5.47;;;;;;;17.62;53.10;99768.72;5097366;28;20419;-61
2023/03/17 11:32:37;;;;;;;14.00;4.97;;;;;;;17.65;53.00;99768.75;5042977;28;20419;-61